createdAt,value
2022-08-09T00:01:43.163Z,2.42
2022-08-09T00:05:00.805Z,2.60
2022-08-09T00:08:32.609Z,2.70
2022-08-09T00:11:58.441Z,2.30
2022-08-09T00:15:06.290Z,2.70
2022-08-09T00:18:11.916Z,2.60
2022-08-09T00:21:14.143Z,2.90
2022-08-09T00:24:15.799Z,2.83
2022-08-09T00:27:21.679Z,2.65
2022-08-09T00:30:25.973Z,2.83
2022-08-09T00:33:48.831Z,2.78
2022-08-09T00:36:50.759Z,2.60
2022-08-09T00:40:14.129Z,2.75
2022-08-09T00:44:10.204Z,2.90
2022-08-09T00:46:56.357Z,2.90
2022-08-09T00:49:58.927Z,2.65
2022-08-09T00:53:00.610Z,2.80
2022-08-09T00:56:13.596Z,2.90
2022-08-09T00:59:15.569Z,2.53
2022-08-09T01:02:34.540Z,3.08
2022-08-09T01:06:17.479Z,2.55
2022-08-09T01:09:35.798Z,3.00
2022-08-09T01:12:59.506Z,2.90
2022-08-09T01:16:04.769Z,2.83
2022-08-09T01:19:39.961Z,3.22
2022-08-09T01:24:01.078Z,2.83
2022-08-09T01:27:08.534Z,2.40
2022-08-09T01:30:33.683Z,2.97
2022-08-09T01:33:38.392Z,2.97
2022-08-09T01:36:41.875Z,2.95
2022-08-09T01:39:46.072Z,2.70
2022-08-09T01:42:50.213Z,2.53
2022-08-09T01:45:54.371Z,3.17
2022-08-09T01:49:09.453Z,3.15
2022-08-09T01:52:15.755Z,2.95
2022-08-09T01:55:18.461Z,3.17
2022-08-09T01:58:24.210Z,3.00
2022-08-09T02:01:30.579Z,2.78
2022-08-09T02:04:52.002Z,3.95
2022-08-09T02:08:35.853Z,3.53
2022-08-09T02:11:21.410Z,3.30
2022-08-09T02:14:26.451Z,3.33
2022-08-09T02:18:01.734Z,3.17
2022-08-09T02:20:58.814Z,3.45
2022-08-09T02:24:05.865Z,3.10
2022-08-09T02:27:14.500Z,3.50
2022-08-09T02:30:21.075Z,3.28
2022-08-09T02:33:38.142Z,2.95
2022-08-09T02:36:54.691Z,3.25
2022-08-09T02:40:01.407Z,3.78
2022-08-09T02:43:08.144Z,3.45
2022-08-09T02:46:16.518Z,3.40
2022-08-09T02:49:19.311Z,3.13
2022-08-09T02:52:40.506Z,3.85
2022-08-09T02:55:53.729Z,3.85
2022-08-09T02:59:03.460Z,3.80
2022-08-09T03:02:09.763Z,3.80
2022-08-09T03:05:17.336Z,3.72
2022-08-09T03:08:21.043Z,3.78
2022-08-09T03:12:04.231Z,3.90
2022-08-09T03:14:50.518Z,3.97
2022-08-09T03:17:58.030Z,3.90
2022-08-09T03:21:03.547Z,3.83
2022-08-09T03:24:05.562Z,3.50
2022-08-09T03:27:09.596Z,4.15
2022-08-09T03:30:14.163Z,4.40
2022-08-09T03:33:54.383Z,4.15
2022-08-09T03:36:59.452Z,4.22
2022-08-09T03:40:01.740Z,4.38
2022-08-09T03:43:06.592Z,4.07
2022-08-09T03:46:20.530Z,4.60
2022-08-09T03:49:32.898Z,4.38
2022-08-09T03:52:40.337Z,4.25
2022-08-09T03:55:43.635Z,4.90
2022-08-09T03:58:46.696Z,4.68
2022-08-09T04:01:54.001Z,4.90
2022-08-09T04:05:06.371Z,4.95
2022-08-09T04:08:08.848Z,4.95
2022-08-09T04:11:11.309Z,5.32
2022-08-09T04:14:52.862Z,5.20
2022-08-09T04:17:34.535Z,4.70
2022-08-09T04:20:36.182Z,5.00
2022-08-09T04:23:38.055Z,5.38
2022-08-09T04:26:41.381Z,5.30
2022-08-09T04:29:50.143Z,6.15
2022-08-09T04:32:52.959Z,6.00
2022-08-09T04:35:55.830Z,5.75
2022-08-09T04:39:00.018Z,6.65
2022-08-09T04:42:02.819Z,5.40
2022-08-09T04:45:05.292Z,5.97
2022-08-09T04:48:10.498Z,5.68
2022-08-09T04:51:12.722Z,5.10
2022-08-09T04:54:18.644Z,5.85
2022-08-09T04:57:24.359Z,6.13
2022-08-09T05:00:27.767Z,5.78
2022-08-09T05:03:42.606Z,5.80
2022-08-09T05:06:45.357Z,5.95
2022-08-09T05:09:52.307Z,6.63
2022-08-09T05:12:53.958Z,6.43
2022-08-09T05:15:56.695Z,6.95
2022-08-09T05:19:00.302Z,6.28
2022-08-09T05:22:02.376Z,7.45
2022-08-09T05:25:05.230Z,7.10
2022-08-09T05:28:06.838Z,7.30
2022-08-09T05:31:09.659Z,6.70
2022-08-09T05:34:16.564Z,7.13
2022-08-09T05:37:18.858Z,6.82
2022-08-09T05:40:20.573Z,7.47
2022-08-09T05:43:23.636Z,7.63
2022-08-09T05:46:25.322Z,7.28
2022-08-09T05:50:26.002Z,8.20
2022-08-09T05:52:53.352Z,7.22
2022-08-09T05:55:55.605Z,6.97
2022-08-09T05:58:58.599Z,7.55
2022-08-09T06:02:00.473Z,7.05
2022-08-09T06:05:04.079Z,7.35
2022-08-09T06:08:07.969Z,6.93
2022-08-09T06:11:17.325Z,7.05
2022-08-09T06:14:19.647Z,8.30
2022-08-09T06:17:22.050Z,6.97
2022-08-09T06:20:23.711Z,7.22
2022-08-09T06:23:57.936Z,7.47
2022-08-09T06:26:50.475Z,7.53
2022-08-09T06:30:04.368Z,6.70
2022-08-09T06:33:30.340Z,6.30
2022-08-09T06:36:33.023Z,6.55
2022-08-09T06:39:49.007Z,7.07
2022-08-09T06:42:56.322Z,7.47
2022-08-09T06:46:07.511Z,7.28
2022-08-09T06:49:12.745Z,6.55
2022-08-09T06:52:17.795Z,6.75
2022-08-09T06:55:23.203Z,6.70
2022-08-09T06:58:46.247Z,6.13
2022-08-09T07:01:54.787Z,6.28
2022-08-09T07:05:02.286Z,6.95
2022-08-09T07:08:04.198Z,6.50
2022-08-09T07:11:06.947Z,5.78
2022-08-09T07:14:08.876Z,6.00
2022-08-09T07:17:10.479Z,6.22
2022-08-09T07:20:14.585Z,6.82
2022-08-09T07:23:18.179Z,5.70
2022-08-09T07:26:20.955Z,6.60
2022-08-09T07:29:24.819Z,6.18
2022-08-09T07:32:33.567Z,5.40
2022-08-09T07:35:53.460Z,6.07
2022-08-09T07:39:00.963Z,5.20
2022-08-09T07:42:04.249Z,5.68
2022-08-09T07:45:22.892Z,6.13
2022-08-09T07:48:30.399Z,5.35
2022-08-09T07:52:05.419Z,5.38
2022-08-09T07:54:55.123Z,5.45
2022-08-09T07:57:59.166Z,5.78
2022-08-09T08:01:10.911Z,6.25
2022-08-09T08:04:13.060Z,5.50
2022-08-09T08:08:06.180Z,5.72
2022-08-09T08:10:37.048Z,5.95
2022-08-09T08:13:55.861Z,5.60
2022-08-09T08:17:07.512Z,5.18
2022-08-09T08:20:13.119Z,5.50
2022-08-09T08:23:17.823Z,6.00
2022-08-09T08:26:26.706Z,4.82
2022-08-09T08:29:45.229Z,5.20
2022-08-09T08:32:53.858Z,5.47
2022-08-09T08:36:00.303Z,5.40
2022-08-09T08:39:05.461Z,4.80
2022-08-09T08:42:07.544Z,5.38
2022-08-09T08:45:13.433Z,5.38
2022-08-09T08:48:19.850Z,5.72
2022-08-09T08:51:25.615Z,5.32
2022-08-09T08:54:29.725Z,4.70
2022-08-09T08:57:35.144Z,5.30
2022-08-09T09:00:37.864Z,4.90
2022-08-09T09:03:42.069Z,4.28
2022-08-09T09:06:48.404Z,4.28
2022-08-09T09:10:02.091Z,3.67
2022-08-09T09:13:09.520Z,4.63
2022-08-09T09:16:13.107Z,4.88
2022-08-09T09:19:36.932Z,4.32
2022-08-09T09:23:01.777Z,4.40
2022-08-09T09:26:11.880Z,4.57
2022-08-09T09:29:17.021Z,4.40
2022-08-09T09:32:32.222Z,4.07
2022-08-09T09:36:00.571Z,4.63
2022-08-09T09:39:10.151Z,4.45
2022-08-09T09:42:28.744Z,4.72
2022-08-09T09:45:56.975Z,3.90
2022-08-09T09:49:04.668Z,4.05
2022-08-09T09:52:33.468Z,3.70
2022-08-09T09:55:33.168Z,3.58
2022-08-09T09:58:49.080Z,4.25
2022-08-09T10:02:00.272Z,4.20
2022-08-09T10:05:09.842Z,4.00
2022-08-09T10:08:27.784Z,4.55
2022-08-09T10:12:00.014Z,3.95
2022-08-09T10:15:25.355Z,3.90
2022-08-09T10:18:37.492Z,3.88
2022-08-09T10:21:54.133Z,3.92
2022-08-09T10:24:59.292Z,3.33
2022-08-09T10:28:06.381Z,3.30
2022-08-09T10:34:33.772Z,3.70
2022-08-09T10:37:38.987Z,3.92
2022-08-09T10:40:44.749Z,3.55
2022-08-09T10:44:01.094Z,3.90
2022-08-09T10:48:16.614Z,3.30
2022-08-09T10:51:06.576Z,3.38
2022-08-09T10:54:12.448Z,3.45
2022-08-09T10:57:15.034Z,3.50
2022-08-09T11:00:28.825Z,3.78
2022-08-09T11:03:51.417Z,3.70
2022-08-09T11:07:12.141Z,3.78
2022-08-09T11:10:21.965Z,3.80
2022-08-09T11:13:50.085Z,3.80
2022-08-09T11:16:52.471Z,3.75
2022-08-09T11:20:10.081Z,3.40
2022-08-09T11:23:15.427Z,3.60
2022-08-09T11:26:40.730Z,3.40
2022-08-09T11:30:05.266Z,3.95
2022-08-09T11:33:19.012Z,3.78
2022-08-09T11:36:35.328Z,3.80
2022-08-09T11:40:04.271Z,3.63
2022-08-09T11:43:06.226Z,3.63
2022-08-09T11:46:09.292Z,3.42
2022-08-09T11:49:16.874Z,3.67
2022-08-09T11:53:16.026Z,3.53
2022-08-09T11:55:53.361Z,3.60
2022-08-09T11:59:05.672Z,3.50
2022-08-09T12:02:37.456Z,3.55
2022-08-09T12:05:39.833Z,3.33
2022-08-09T12:08:51.585Z,3.60
2022-08-09T12:12:12.084Z,3.20
2022-08-09T12:15:49.582Z,3.45
2022-08-09T12:18:54.090Z,3.38
2022-08-09T12:22:00.471Z,3.55
2022-08-09T12:25:36.492Z,3.42
2022-08-09T12:29:09.878Z,3.25
2022-08-09T12:32:10.812Z,3.30
2022-08-09T12:35:17.044Z,3.30
2022-08-09T12:38:37.366Z,3.17
2022-08-09T12:41:40.609Z,3.28
2022-08-09T12:44:51.989Z,3.53
2022-08-09T12:47:54.249Z,2.92
2022-08-09T12:50:57.060Z,3.15
2022-08-09T12:54:01.946Z,3.33
2022-08-09T12:57:03.626Z,3.97
2022-08-09T13:00:25.167Z,3.25
2022-08-09T13:03:57.166Z,3.13
2022-08-09T13:06:54.077Z,3.10
2022-08-09T13:10:04.256Z,3.05
2022-08-09T13:13:10.172Z,3.05
2022-08-09T13:16:15.716Z,3.17
2022-08-09T13:20:09.645Z,2.63
2022-08-09T13:23:05.693Z,3.10
2022-08-09T13:26:38.860Z,2.90
2022-08-09T13:30:04.104Z,3.30
2022-08-09T13:33:24.798Z,3.00
2022-08-09T13:36:46.372Z,3.20
2022-08-09T13:41:50.736Z,2.55
2022-08-09T13:43:15.477Z,2.63
2022-08-09T13:47:16.671Z,3.10
2022-08-09T13:49:58.219Z,2.80
2022-08-09T13:53:01.492Z,2.72
2022-08-09T13:56:05.321Z,3.03
2022-08-09T13:59:07.060Z,3.08
2022-08-09T14:02:09.969Z,2.70
2022-08-09T14:05:13.475Z,2.80
2022-08-09T14:08:33.330Z,2.78
2022-08-09T14:11:47.268Z,2.55
2022-08-09T14:14:53.815Z,2.90
2022-08-09T14:18:16.511Z,2.88
2022-08-09T14:21:23.196Z,2.90
2022-08-09T14:24:31.995Z,2.50
2022-08-09T14:27:34.344Z,2.80
2022-08-09T14:30:55.903Z,2.97
2022-08-09T14:33:57.624Z,2.58
2022-08-09T14:37:06.726Z,2.72
2022-08-09T14:40:10.068Z,2.88
2022-08-09T14:43:12.493Z,2.60
2022-08-09T14:46:58.659Z,2.30
2022-08-09T14:50:01.615Z,2.72
2022-08-09T14:53:11.532Z,2.90
2022-08-09T14:56:13.753Z,3.13
2022-08-09T14:59:15.763Z,2.50
2022-08-09T15:02:20.474Z,2.40
2022-08-09T15:05:25.448Z,2.47
2022-08-09T15:08:30.206Z,2.78
2022-08-09T15:11:33.622Z,2.30
2022-08-09T15:14:38.587Z,2.58
2022-08-09T15:17:46.114Z,2.60
2022-08-09T15:21:57.383Z,2.58
2022-08-09T15:24:16.471Z,2.65
2022-08-09T15:27:23.858Z,2.58
2022-08-09T15:30:58.381Z,2.88
2022-08-09T15:34:17.574Z,2.70
2022-08-09T15:37:37.287Z,2.25
2022-08-09T15:41:02.114Z,2.97
2022-08-09T15:44:13.533Z,2.88
2022-08-09T15:47:22.639Z,2.55
2022-08-09T15:50:33.631Z,3.30
2022-08-09T15:54:06.871Z,2.70
2022-08-09T15:56:56.800Z,2.97
2022-08-09T15:59:58.645Z,2.88
2022-08-09T16:03:00.248Z,2.85
2022-08-09T16:06:04.275Z,2.80
2022-08-09T16:09:06.175Z,2.75
2022-08-09T16:12:11.547Z,2.78
2022-08-09T16:16:09.803Z,2.53
2022-08-09T16:18:35.807Z,2.88
2022-08-09T16:21:38.815Z,2.88
2022-08-09T16:24:40.477Z,3.20
2022-08-09T16:27:43.922Z,3.03
2022-08-09T16:30:58.432Z,2.65
2022-08-09T16:34:02.575Z,2.53
2022-08-09T16:37:10.378Z,2.60
2022-08-09T16:40:29.398Z,2.80
2022-08-09T16:43:40.447Z,2.65
2022-08-09T16:46:55.315Z,2.75
2022-08-09T16:50:33.099Z,2.70
2022-08-09T16:53:33.997Z,3.10
2022-08-09T16:56:37.061Z,3.63
2022-08-09T16:59:57.929Z,2.65
2022-08-09T17:03:00.477Z,2.50
2022-08-09T17:06:28.168Z,2.50
2022-08-09T17:09:45.763Z,2.40
2022-08-09T17:12:49.299Z,2.75
2022-08-09T17:16:00.257Z,2.40
2022-08-09T17:19:05.305Z,2.42
2022-08-09T17:22:10.838Z,2.60
2022-08-09T17:25:14.186Z,2.70
2022-08-09T17:28:18.096Z,2.42
2022-08-09T17:31:22.281Z,2.60
2022-08-09T17:35:04.142Z,2.60
2022-08-09T17:38:02.609Z,2.35
2022-08-09T17:41:09.491Z,2.20
2022-08-09T17:44:47.227Z,2.40
2022-08-09T17:47:48.378Z,2.95
2022-08-09T17:50:55.993Z,2.05
2022-08-09T17:54:01.850Z,2.65
2022-08-09T17:57:04.283Z,2.47
2022-08-09T18:00:09.875Z,2.08
2022-08-09T18:03:13.093Z,2.13
2022-08-09T18:06:28.918Z,2.50
2022-08-09T18:09:41.637Z,2.63
2022-08-09T18:13:54.615Z,2.05
2022-08-09T18:16:08.771Z,2.08
2022-08-09T18:20:55.624Z,2.30
2022-08-09T18:22:37.888Z,2.10
2022-08-09T18:25:53.256Z,2.00
2022-08-09T18:30:37.884Z,2.38
2022-08-09T18:32:22.235Z,2.35
2022-08-09T18:35:58.452Z,2.28
2022-08-09T18:38:48.503Z,2.30
2022-08-09T18:41:53.922Z,2.17
2022-08-09T18:44:56.976Z,2.38
2022-08-09T18:47:59.705Z,2.25
2022-08-09T18:51:02.409Z,2.40
2022-08-09T18:54:08.580Z,2.22
2022-08-09T18:57:22.445Z,2.05
2022-08-09T19:00:26.054Z,2.42
2022-08-09T19:03:29.446Z,2.38
2022-08-09T19:06:51.609Z,2.17
2022-08-09T19:10:13.966Z,2.08
2022-08-09T19:13:22.293Z,2.30
2022-08-09T19:16:27.472Z,2.60
2022-08-09T19:19:41.509Z,2.70
2022-08-09T19:22:53.182Z,2.13
2022-08-09T19:26:01.916Z,2.67
2022-08-09T19:32:26.678Z,2.30
2022-08-09T19:35:57.216Z,2.33
2022-08-09T19:38:59.129Z,2.40
2022-08-09T19:42:06.505Z,2.67
2022-08-09T19:45:10.102Z,2.30
2022-08-09T19:48:12.382Z,2.70
2022-08-09T19:51:14.028Z,2.55
2022-08-09T19:54:20.058Z,2.40
2022-08-09T19:57:25.554Z,2.38
2022-08-09T20:00:31.312Z,2.20
2022-08-09T20:04:16.789Z,2.22
2022-08-09T20:07:00.587Z,2.45
2022-08-09T20:10:17.631Z,2.30
2022-08-09T20:13:28.769Z,2.25
2022-08-09T20:16:53.528Z,2.00
2022-08-09T20:19:57.087Z,2.25
2022-08-09T20:22:58.774Z,2.00
2022-08-09T20:26:01.333Z,2.30
2022-08-09T20:29:18.704Z,2.13
2022-08-09T20:32:29.689Z,2.20
2022-08-09T20:35:33.414Z,2.00
2022-08-09T20:39:01.163Z,2.20
2022-08-09T20:41:59.242Z,2.20
2022-08-09T20:45:56.515Z,2.40
2022-08-09T20:48:22.742Z,1.92
2022-08-09T20:51:25.831Z,2.40
2022-08-09T20:54:27.769Z,2.30
2022-08-09T20:57:32.145Z,2.53
2022-08-09T21:00:35.063Z,2.40
2022-08-09T21:03:39.395Z,2.45
2022-08-09T21:06:58.185Z,2.30
2022-08-09T21:10:00.085Z,2.65
2022-08-09T21:13:01.709Z,2.25
2022-08-09T21:16:04.186Z,2.47
2022-08-09T21:20:19.009Z,2.78
2022-08-09T21:22:47.073Z,2.15
2022-08-09T21:25:59.860Z,2.45
2022-08-09T21:29:01.758Z,2.50
2022-08-09T21:32:18.542Z,2.67
2022-08-09T21:35:21.704Z,2.10
2022-08-09T21:38:31.266Z,2.40
2022-08-09T21:42:06.058Z,2.40
2022-08-09T21:44:56.733Z,2.15
2022-08-09T21:47:59.512Z,2.20
2022-08-09T21:51:01.111Z,2.25
2022-08-09T21:54:04.333Z,2.17
2022-08-09T21:57:05.999Z,2.60
2022-08-09T22:00:32.297Z,1.80
2022-08-09T22:03:36.706Z,2.20
2022-08-09T22:06:58.995Z,2.28
2022-08-09T22:10:06.379Z,2.60
2022-08-09T22:13:11.393Z,2.47
2022-08-09T22:16:13.274Z,2.30
2022-08-09T22:19:53.411Z,2.25
2022-08-09T22:22:38.985Z,1.95
2022-08-09T22:26:07.938Z,1.90
2022-08-09T22:29:07.194Z,2.25
2022-08-09T22:32:29.380Z,2.22
2022-08-09T22:35:59.902Z,2.13
2022-08-09T22:38:53.547Z,1.88
2022-08-09T22:41:55.186Z,2.83
2022-08-09T22:45:00.359Z,2.45
2022-08-09T22:48:34.617Z,2.38
2022-08-09T22:51:39.415Z,2.50
2022-08-09T22:54:41.268Z,2.38
2022-08-09T22:57:44.449Z,2.15
2022-08-09T23:01:04.058Z,2.70
2022-08-09T23:04:07.486Z,2.40
2022-08-09T23:08:21.335Z,1.83
2022-08-09T23:13:53.428Z,2.22
2022-08-09T23:16:55.017Z,2.10
2022-08-09T23:20:07.460Z,2.33
2022-08-09T23:23:09.872Z,2.10
2022-08-09T23:26:11.495Z,2.22
2022-08-09T23:29:13.733Z,2.45
2022-08-09T23:32:15.657Z,2.10
2022-08-09T23:35:17.284Z,2.20
2022-08-09T23:38:22.409Z,2.45
2022-08-09T23:41:27.613Z,2.03
2022-08-09T23:44:31.077Z,2.42
2022-08-09T23:47:32.655Z,2.20
2022-08-09T23:50:34.318Z,2.00
2022-08-09T23:53:37.629Z,2.15
2022-08-09T23:56:54.269Z,1.90
